createdAt,value
2022-08-07T00:00:57.584Z,12.07
2022-08-07T00:03:47.623Z,11.00
2022-08-07T00:06:35.577Z,11.33
2022-08-07T00:09:34.305Z,10.60
2022-08-07T00:12:16.391Z,12.53
2022-08-07T00:15:01.657Z,11.90
2022-08-07T00:17:48.964Z,9.50
2022-08-07T00:20:38.072Z,8.63
2022-08-07T00:23:28.298Z,7.15
2022-08-07T00:26:31.144Z,7.78
2022-08-07T00:29:04.838Z,7.40
2022-08-07T00:31:55.295Z,7.15
2022-08-07T00:34:43.311Z,7.33
2022-08-07T00:37:30.638Z,7.25
2022-08-07T00:40:36.180Z,7.40
2022-08-07T00:43:58.997Z,7.80
2022-08-07T00:46:01.989Z,8.85
2022-08-07T00:48:49.881Z,8.88
2022-08-07T00:51:58.576Z,9.35
2022-08-07T00:54:28.159Z,10.32
2022-08-07T00:57:18.775Z,10.23
2022-08-07T01:00:08.567Z,9.93
2022-08-07T01:02:56.229Z,9.80
2022-08-07T01:05:51.647Z,9.58
2022-08-07T01:08:36.191Z,10.20
2022-08-07T01:12:27.349Z,8.03
2022-08-07T01:14:15.584Z,8.08
2022-08-07T01:17:04.062Z,7.67
2022-08-07T01:19:54.588Z,7.60
2022-08-07T01:22:54.192Z,7.33
2022-08-07T01:25:53.779Z,7.07
2022-08-07T01:28:21.655Z,7.40
2022-08-07T01:31:09.807Z,6.53
2022-08-07T01:34:00.091Z,7.50
2022-08-07T01:36:57.661Z,7.45
2022-08-07T01:39:41.494Z,7.28
2022-08-07T01:42:38.097Z,7.08
2022-08-07T01:45:23.044Z,6.87
2022-08-07T01:51:24.606Z,7.25
2022-08-07T01:54:11.817Z,7.53
2022-08-07T01:57:20.744Z,7.10
2022-08-07T02:00:13.801Z,6.72
2022-08-07T02:03:12.366Z,7.30
2022-08-07T02:06:08.945Z,9.98
2022-08-07T02:08:57.209Z,6.60
2022-08-07T02:12:02.830Z,6.33
2022-08-07T02:14:41.095Z,9.58
2022-08-07T02:17:31.724Z,6.03
2022-08-07T02:20:23.483Z,7.47
2022-08-07T02:23:07.848Z,8.13
2022-08-07T02:26:30.570Z,7.62
2022-08-07T02:28:46.352Z,9.03
2022-08-07T02:31:36.257Z,9.40
2022-08-07T02:34:23.849Z,7.62
2022-08-07T02:37:11.784Z,7.00
2022-08-07T02:40:11.819Z,8.35
2022-08-07T02:42:50.552Z,9.23
2022-08-07T02:46:00.743Z,8.53
2022-08-07T02:48:32.423Z,8.18
2022-08-07T02:51:41.678Z,8.28
2022-08-07T02:54:13.168Z,8.68
2022-08-07T02:57:03.215Z,7.55
2022-08-07T03:00:00.839Z,7.40
2022-08-07T03:02:54.587Z,8.48
2022-08-07T03:05:38.065Z,7.30
2022-08-07T03:08:26.846Z,7.78
2022-08-07T03:11:15.245Z,7.83
2022-08-07T03:14:04.904Z,7.45
2022-08-07T03:16:52.730Z,6.67
2022-08-07T03:19:40.512Z,6.90
2022-08-07T03:22:30.567Z,7.87
2022-08-07T03:25:21.128Z,7.47
2022-08-07T03:28:38.434Z,7.55
2022-08-07T03:31:18.216Z,7.70
2022-08-07T03:34:07.392Z,6.42
2022-08-07T03:36:57.367Z,7.03
2022-08-07T03:40:13.189Z,6.63
2022-08-07T03:42:37.162Z,6.97
2022-08-07T03:45:30.113Z,6.78
2022-08-07T03:48:16.598Z,7.08
2022-08-07T03:51:04.658Z,7.30
2022-08-07T03:54:32.953Z,7.55
2022-08-07T03:56:42.258Z,6.73
2022-08-07T03:59:32.525Z,6.78
2022-08-07T04:02:20.072Z,6.58
2022-08-07T04:05:08.450Z,6.35
2022-08-07T04:07:57.713Z,6.22
2022-08-07T04:10:54.059Z,6.22
2022-08-07T04:14:14.030Z,6.70
2022-08-07T04:16:30.928Z,6.50
2022-08-07T04:19:15.649Z,6.22
2022-08-07T04:22:08.702Z,6.92
2022-08-07T04:27:44.282Z,6.40
2022-08-07T04:30:43.690Z,5.80
2022-08-07T04:33:19.762Z,6.55
2022-08-07T04:36:09.529Z,5.70
2022-08-07T04:38:58.582Z,6.00
2022-08-07T04:41:50.460Z,6.22
2022-08-07T04:44:37.025Z,6.58
2022-08-07T04:47:56.947Z,5.95
2022-08-07T04:50:45.530Z,5.60
2022-08-07T04:54:06.462Z,5.10
2022-08-07T04:58:16.566Z,4.87
2022-08-07T05:00:12.395Z,4.65
2022-08-07T05:02:24.354Z,4.40
2022-08-07T05:05:53.131Z,4.00
2022-08-07T05:10:58.554Z,3.50
2022-08-07T05:14:55.033Z,2.83
2022-08-07T05:16:44.021Z,2.27
2022-08-07T05:19:45.037Z,1.70
2022-08-07T05:22:27.605Z,2.00
2022-08-07T05:25:26.268Z,1.32
2022-08-07T05:28:20.656Z,1.82
2022-08-07T05:30:53.739Z,1.22
2022-08-07T05:33:41.801Z,1.47
2022-08-07T05:36:35.483Z,1.60
2022-08-07T05:40:07.112Z,1.20
2022-08-07T05:42:12.866Z,1.32
2022-08-07T05:45:14.475Z,1.05
2022-08-07T05:48:02.118Z,1.10
2022-08-07T05:50:39.484Z,1.10
2022-08-07T05:54:13.597Z,1.40
2022-08-07T05:56:19.436Z,0.70
2022-08-07T05:59:11.194Z,1.05
2022-08-07T06:02:00.812Z,1.15
2022-08-07T06:04:53.640Z,1.47
2022-08-07T06:08:13.536Z,1.30
2022-08-07T06:10:30.259Z,0.93
2022-08-07T06:13:18.001Z,0.90
2022-08-07T06:16:10.219Z,1.07
2022-08-07T06:19:01.014Z,0.60
2022-08-07T06:22:16.400Z,0.90
2022-08-07T06:24:56.932Z,0.70
2022-08-07T06:27:44.279Z,0.90
2022-08-07T06:30:31.970Z,0.80
2022-08-07T06:33:09.911Z,0.80
2022-08-07T06:36:12.061Z,0.65
2022-08-07T06:38:58.414Z,0.70
2022-08-07T06:42:01.495Z,0.80
2022-08-07T06:44:36.644Z,0.88
2022-08-07T06:47:22.312Z,0.97
2022-08-07T06:50:10.938Z,0.90
2022-08-07T06:52:58.856Z,0.57
2022-08-07T06:55:53.963Z,0.93
2022-08-07T06:58:37.396Z,0.70
2022-08-07T07:01:26.329Z,0.80
2022-08-07T07:04:28.027Z,0.85
2022-08-07T07:07:10.778Z,0.88
2022-08-07T07:09:55.585Z,0.70
2022-08-07T07:12:53.575Z,0.60
2022-08-07T07:15:43.252Z,0.80
2022-08-07T07:18:46.953Z,0.85
2022-08-07T07:21:40.103Z,0.80
2022-08-07T07:24:18.090Z,0.70
2022-08-07T07:27:06.120Z,1.00
